Time;durP1;ratioP1;P1;durP2;ratioP2;P2;SDS_P1;SDS_P2;PMS_P1;PMS_P2;Temp;Humidity;BMP_temperature;BMP_pressure;BME280_temperature;BME280_humidity;BME280_pressure;Samples;Min_cycle;Max_cycle;Signal;HPM_P1;HPM_P2
2023/09/27 00:00:29;;;;;;;14.53;8.70;;;18.90;99.90;;;;;;5027903;28;20458;-83
2023/09/27 00:02:55;;;;;;;8.80;7.90;;;18.80;99.90;;;;;;5029344;28;20422;-83
2023/09/27 00:05:21;;;;;;;9.10;7.60;;;18.80;99.90;;;;;;5030899;28;20246;-82
2023/09/27 00:07:46;;;;;;;8.90;8.00;;;18.80;99.90;;;;;;5031215;28;20189;-83
2023/09/27 00:10:12;;;;;;;10.03;7.13;;;18.70;99.90;;;;;;5041272;28;20275;-83
2023/09/27 00:12:39;;;;;;;7.87;7.17;;;18.70;99.90;;;;;;5036698;28;20208;-82
2023/09/27 00:15:07;;;;;;;8.83;7.47;;;18.60;99.90;;;;;;5057762;28;20579;-81
2023/09/27 00:17:33;;;;;;;9.17;7.50;;;18.60;99.90;;;;;;5021986;28;20608;-81
2023/09/27 00:19:59;;;;;;;8.07;7.27;;;18.60;99.90;;;;;;5025450;28;20544;-83
2023/09/27 00:22:24;;;;;;;7.97;7.17;;;18.50;99.90;;;;;;5028405;28;20195;-84
2023/09/27 00:24:51;;;;;;;8.00;7.20;;;18.60;99.90;;;;;;5032429;28;20745;-85
2023/09/27 00:27:17;;;;;;;7.80;7.10;;;18.60;99.90;;;;;;5032657;28;20185;-85
2023/09/27 00:29:42;;;;;;;8.50;7.43;;;18.50;99.90;;;;;;5029685;28;20430;-83
2023/09/27 00:32:08;;;;;;;7.67;6.30;;;18.30;99.90;;;;;;5026452;28;20215;-83
2023/09/27 00:34:34;;;;;;;8.30;7.33;;;18.30;99.90;;;;;;5025152;28;20295;-83
2023/09/27 00:37:00;;;;;;;12.90;7.30;;;18.30;99.90;;;;;;5028134;28;20668;-84
2023/09/27 00:39:26;;;;;;;7.87;7.13;;;18.20;99.90;;;;;;5026066;28;20514;-83
2023/09/27 00:41:51;;;;;;;6.70;6.00;;;18.20;99.90;;;;;;5025393;28;20200;-84
2023/09/27 00:44:17;;;;;;;8.60;6.37;;;18.20;99.90;;;;;;5008848;28;20208;-83
2023/09/27 00:46:44;;;;;;;7.70;6.90;;;18.20;99.90;;;;;;5029612;28;20283;-84
2023/09/27 00:49:12;;;;;;;7.20;6.50;;;18.10;99.90;;;;;;5030309;28;20191;-83
2023/09/27 00:51:39;;;;;;;6.90;6.30;;;18.10;99.90;;;;;;5048375;28;20417;-84
2023/09/27 00:54:05;;;;;;;8.70;6.47;;;18.20;99.90;;;;;;5036446;28;20512;-83
2023/09/27 00:56:32;;;;;;;7.70;6.50;;;18.10;99.90;;;;;;5051139;28;21105;-84
2023/09/27 00:58:58;;;;;;;6.10;5.50;;;18.10;99.90;;;;;;5032324;28;20412;-84
2023/09/27 01:01:27;;;;;;;15.30;8.30;;;18.10;99.90;;;;;;5015303;28;20435;-83
2023/09/27 01:03:53;;;;;;;7.00;6.37;;;18.10;99.90;;;;;;5021758;28;20443;-83
2023/09/27 01:06:20;;;;;;;8.13;6.60;;;18.10;99.90;;;;;;5023245;28;20521;-83
2023/09/27 01:08:46;;;;;;;6.30;5.40;;;18.10;99.90;;;;;;5025537;28;20490;-83
2023/09/27 01:11:12;;;;;;;6.37;5.77;;;18.10;99.90;;;;;;5027878;28;20856;-85
2023/09/27 01:13:38;;;;;;;6.00;5.40;;;18.10;99.90;;;;;;5023146;28;20481;-86
2023/09/27 01:16:04;;;;;;;6.60;5.87;;;18.10;99.90;;;;;;5029423;28;20820;-85
2023/09/27 01:18:29;;;;;;;6.30;5.43;;;18.10;99.90;;;;;;5031508;28;20420;-86
2023/09/27 01:20:55;;;;;;;8.30;6.00;;;18.10;99.90;;;;;;5028033;28;20192;-86
2023/09/27 01:23:21;;;;;;;6.13;5.53;;;18.10;99.90;;;;;;5028497;28;20220;-86
2023/09/27 01:25:50;;;;;;;8.20;6.70;;;18.10;99.90;;;;;;5008282;28;20207;-83
2023/09/27 01:28:20;;;;;;;7.47;6.60;;;18.10;99.90;;;;;;5021595;28;20185;-83
2023/09/27 01:30:47;;;;;;;6.53;5.87;;;18.00;99.90;;;;;;5019303;28;20431;-83
2023/09/27 01:33:13;;;;;;;6.90;6.30;;;18.00;99.90;;;;;;5024397;28;20472;-84
2023/09/27 01:35:39;;;;;;;7.10;5.97;;;18.00;99.90;;;;;;5029752;28;20469;-85
2023/09/27 01:38:07;;;;;;;6.40;5.80;;;17.90;99.90;;;;;;5025777;28;20603;-87
2023/09/27 01:40:34;;;;;;;6.80;6.10;;;17.90;99.90;;;;;;5014101;28;20485;-86
2023/09/27 01:43:01;;;;;;;6.90;5.93;;;17.90;99.90;;;;;;5021259;28;20430;-86
2023/09/27 01:45:31;;;;;;;7.23;6.63;;;17.90;99.90;;;;;;5026335;28;20462;-85
2023/09/27 01:47:59;;;;;;;6.57;5.70;;;17.90;99.90;;;;;;5026548;28;20440;-86
2023/09/27 01:50:26;;;;;;;7.33;6.70;;;17.80;99.90;;;;;;5026658;28;20415;-83
2023/09/27 01:52:53;;;;;;;7.00;6.30;;;17.80;99.90;;;;;;5023580;28;20451;-86
2023/09/27 01:55:19;;;;;;;6.13;5.60;;;17.70;99.90;;;;;;5024417;28;20435;-86
2023/09/27 01:57:48;;;;;;;6.83;6.20;;;17.70;99.90;;;;;;5021132;28;20450;-86
2023/09/27 02:00:15;;;;;;;8.47;6.00;;;17.70;99.90;;;;;;5030095;28;20466;-85
2023/09/27 02:02:41;;;;;;;7.33;6.00;;;17.60;99.90;;;;;;5022667;28;20491;-86
2023/09/27 02:05:08;;;;;;;7.67;6.90;;;17.60;99.90;;;;;;5024499;28;20530;-84
2023/09/27 02:07:40;;;;;;;6.87;6.17;;;17.50;99.90;;;;;;5023797;28;20966;-82
2023/09/27 02:10:08;;;;;;;7.43;6.37;;;17.50;99.90;;;;;;5003791;28;20986;-80
2023/09/27 02:12:34;;;;;;;7.43;6.60;;;17.50;99.90;;;;;;5015602;28;21005;-80
2023/09/27 02:14:59;;;;;;;7.43;6.73;;;17.40;99.90;;;;;;5017845;28;20435;-81
2023/09/27 02:17:25;;;;;;;7.33;6.60;;;17.40;99.90;;;;;;5021883;28;20271;-81
2023/09/27 02:19:51;;;;;;;7.97;7.00;;;17.40;99.90;;;;;;5022172;28;20192;-81
2023/09/27 02:22:18;;;;;;;7.90;6.60;;;17.40;99.90;;;;;;5015307;28;20276;-81
2023/09/27 02:24:44;;;;;;;7.83;6.57;;;17.50;99.90;;;;;;5019931;28;20533;-78
2023/09/27 02:27:10;;;;;;;8.60;6.40;;;17.40;99.90;;;;;;5017944;28;21001;-78
2023/09/27 02:29:42;;;;;;;7.17;6.47;;;17.40;99.90;;;;;;5015365;28;20553;-78
2023/09/27 02:32:09;;;;;;;7.47;6.57;;;17.40;99.90;;;;;;5020016;28;20415;-78
2023/09/27 02:34:35;;;;;;;7.17;6.40;;;17.40;99.90;;;;;;5017419;28;20563;-78
2023/09/27 02:37:01;;;;;;;11.93;6.87;;;17.40;99.90;;;;;;5021465;28;20596;-76
2023/09/27 02:39:28;;;;;;;7.77;6.83;;;17.40;99.90;;;;;;5028746;28;20442;-77
2023/09/27 02:41:57;;;;;;;7.63;6.93;;;17.40;99.90;;;;;;5027664;28;20431;-81
2023/09/27 02:44:25;;;;;;;8.63;7.33;;;17.40;99.90;;;;;;5017966;28;20487;-81
2023/09/27 02:46:54;;;;;;;8.53;7.63;;;17.40;99.90;;;;;;5026149;28;20473;-82
2023/09/27 02:49:21;;;;;;;8.50;6.90;;;17.40;99.90;;;;;;5025469;28;20411;-82
2023/09/27 02:51:47;;;;;;;9.07;7.47;;;17.40;99.90;;;;;;5037262;28;20438;-82
2023/09/27 02:54:14;;;;;;;8.60;7.70;;;17.40;99.90;;;;;;5041365;28;20455;-79
2023/09/27 02:56:40;;;;;;;9.30;7.30;;;17.40;99.90;;;;;;5034518;28;20545;-78
2023/09/27 02:59:06;;;;;;;7.30;6.60;;;17.40;99.90;;;;;;5022941;28;20415;-78
2023/09/27 03:01:32;;;;;;;9.13;7.03;;;17.40;99.90;;;;;;5020108;28;20999;-81
2023/09/27 03:03:58;;;;;;;9.47;7.07;;;17.40;99.90;;;;;;5022378;28;20455;-79
2023/09/27 03:06:24;;;;;;;9.93;7.27;;;17.40;99.90;;;;;;5013740;28;20205;-81
2023/09/27 03:08:50;;;;;;;8.57;7.67;;;17.40;99.90;;;;;;5025365;28;20268;-81
2023/09/27 03:11:17;;;;;;;10.37;7.53;;;17.40;99.90;;;;;;5003252;28;20177;-81
2023/09/27 03:13:43;;;;;;;8.47;6.13;;;17.40;99.90;;;;;;5006068;28;20456;-80
2023/09/27 03:16:10;;;;;;;7.33;6.60;;;17.40;99.90;;;;;;5021177;28;20411;-80
2023/09/27 03:18:35;;;;;;;8.70;6.70;;;17.40;99.90;;;;;;5014793;28;20424;-81
2023/09/27 03:21:01;;;;;;;7.50;6.70;;;17.40;99.90;;;;;;5009073;28;20444;-81
2023/09/27 03:23:27;;;;;;;7.70;6.90;;;17.40;99.90;;;;;;5024521;28;20446;-79
2023/09/27 03:25:54;;;;;;;8.03;6.60;;;17.30;99.90;;;;;;5019164;28;20729;-81
2023/09/27 03:28:19;;;;;;;9.00;7.20;;;17.30;99.90;;;;;;5018378;28;20227;-79
2023/09/27 03:30:46;;;;;;;9.40;6.97;;;17.30;99.90;;;;;;5021734;28;20876;-79
2023/09/27 03:33:12;;;;;;;9.47;6.80;;;17.20;99.90;;;;;;5005398;28;20235;-81
2023/09/27 03:35:37;;;;;;;7.00;6.30;;;17.30;99.90;;;;;;5028747;28;20433;-82
2023/09/27 03:38:05;;;;;;;9.13;6.50;;;17.20;99.90;;;;;;5021290;28;20258;-78
2023/09/27 03:40:31;;;;;;;8.73;7.60;;;17.20;99.90;;;;;;5020521;28;20189;-84
2023/09/27 03:42:56;;;;;;;8.07;7.13;;;17.20;99.90;;;;;;5017595;28;20644;-81
2023/09/27 03:45:22;;;;;;;8.23;7.27;;;17.20;99.90;;;;;;5021084;28;20659;-79
2023/09/27 03:47:48;;;;;;;8.50;7.60;;;17.10;99.90;;;;;;5022598;28;20181;-79
2023/09/27 03:50:14;;;;;;;10.90;7.73;;;17.10;99.90;;;;;;5022560;28;20979;-80
2023/09/27 03:52:40;;;;;;;11.23;8.10;;;17.00;99.90;;;;;;5017808;28;20722;-78
2023/09/27 03:55:10;;;;;;;8.80;7.80;;;17.00;99.90;;;;;;5021572;28;20496;-79
2023/09/27 03:57:37;;;;;;;7.73;6.93;;;17.00;99.90;;;;;;5021896;28;20451;-79
2023/09/27 04:00:17;;;;;;;7.67;6.87;;;17.00;99.90;;;;;;5026108;28;20973;-83
2023/09/27 04:02:44;;;;;;;8.50;7.70;;;17.00;99.90;;;;;;5019297;28;20445;-80
2023/09/27 04:05:10;;;;;;;10.97;7.80;;;17.00;99.90;;;;;;5021524;28;20471;-82
2023/09/27 04:07:36;;;;;;;9.57;7.97;;;17.00;99.90;;;;;;5022466;28;20426;-80
2023/09/27 04:10:03;;;;;;;8.07;7.27;;;16.90;99.90;;;;;;5022148;28;20510;-84
2023/09/27 04:12:29;;;;;;;11.13;7.43;;;16.90;99.90;;;;;;5017854;28;20191;-81
2023/09/27 04:14:54;;;;;;;8.30;7.40;;;16.90;99.90;;;;;;5020302;28;20458;-80
2023/09/27 04:17:20;;;;;;;9.23;8.43;;;16.90;99.90;;;;;;5019664;28;20195;-80
2023/09/27 04:19:49;;;;;;;8.83;7.70;;;16.90;99.90;;;;;;5021507;28;20187;-79
2023/09/27 04:22:14;;;;;;;9.97;7.87;;;16.90;99.90;;;;;;5020894;28;20188;-80
2023/09/27 04:24:40;;;;;;;8.40;7.60;;;16.90;99.90;;;;;;5025518;28;21201;-79
2023/09/27 04:27:05;;;;;;;9.63;7.57;;;16.80;99.90;;;;;;5021830;28;20212;-79
2023/09/27 04:29:31;;;;;;;10.47;7.10;;;16.80;99.90;;;;;;5021509;28;20193;-79
2023/09/27 04:31:56;;;;;;;7.67;6.87;;;16.80;99.90;;;;;;5021960;28;20188;-79
2023/09/27 04:34:23;;;;;;;10.10;7.30;;;16.80;99.90;;;;;;5024937;28;20771;-80
2023/09/27 04:36:50;;;;;;;9.30;7.93;;;16.70;99.90;;;;;;5021787;28;20192;-79
2023/09/27 04:39:18;;;;;;;7.77;7.00;;;16.60;99.90;;;;;;5027072;28;20512;-80
2023/09/27 04:41:46;;;;;;;8.00;7.30;;;16.60;99.90;;;;;;5022355;28;20419;-79
2023/09/27 04:44:12;;;;;;;8.67;7.10;;;16.60;99.90;;;;;;5018058;28;20828;-79
2023/09/27 04:46:38;;;;;;;9.73;7.40;;;16.50;99.90;;;;;;5024400;28;20467;-80
2023/09/27 04:49:03;;;;;;;8.90;7.43;;;16.50;99.90;;;;;;5010089;28;20431;-80
2023/09/27 04:51:29;;;;;;;9.40;6.67;;;16.50;99.90;;;;;;5017809;28;20184;-77
2023/09/27 04:54:00;;;;;;;10.30;7.70;;;16.50;99.90;;;;;;5034925;28;20317;-78
2023/09/27 04:56:26;;;;;;;9.57;7.70;;;16.50;99.90;;;;;;5021709;28;20557;-78
2023/09/27 04:58:52;;;;;;;8.77;7.87;;;16.40;99.90;;;;;;5021817;28;20431;-78
2023/09/27 05:01:18;;;;;;;8.40;7.57;;;16.30;99.90;;;;;;5017971;28;20442;-77
2023/09/27 05:03:43;;;;;;;12.17;8.43;;;16.30;99.90;;;;;;5020813;28;20228;-79
2023/09/27 05:06:09;;;;;;;9.13;7.53;;;16.20;99.90;;;;;;5019091;28;20707;-80
2023/09/27 05:08:34;;;;;;;8.77;6.97;;;16.10;99.90;;;;;;5024940;28;20183;-81
2023/09/27 05:11:00;;;;;;;8.47;7.60;;;16.20;99.90;;;;;;5021847;28;20184;-75
2023/09/27 05:13:26;;;;;;;7.77;6.90;;;16.10;99.90;;;;;;5017833;28;20222;-77
2023/09/27 05:15:52;;;;;;;8.50;7.70;;;16.10;99.90;;;;;;5022073;28;20426;-76
2023/09/27 05:18:18;;;;;;;7.40;6.70;;;16.00;99.90;;;;;;5036436;28;20255;-77
2023/09/27 05:20:44;;;;;;;8.40;7.63;;;16.00;99.90;;;;;;5002088;28;20346;-77
2023/09/27 05:23:10;;;;;;;9.63;6.50;;;16.10;99.90;;;;;;5027059;28;20537;-77
2023/09/27 05:25:36;;;;;;;11.10;7.43;;;16.10;99.90;;;;;;5020738;28;20204;-77
2023/09/27 05:28:02;;;;;;;7.40;6.70;;;16.10;99.90;;;;;;5017138;28;22102;-79
2023/09/27 05:30:27;;;;;;;9.63;7.40;;;16.10;99.90;;;;;;5014807;28;20173;-79
2023/09/27 05:32:53;;;;;;;8.00;6.67;;;16.10;99.90;;;;;;5017156;28;20297;-76
2023/09/27 05:35:19;;;;;;;8.53;6.57;;;16.20;99.90;;;;;;5013994;28;20207;-77
2023/09/27 05:37:44;;;;;;;7.53;6.67;;;16.20;99.90;;;;;;5003901;28;20956;-78
2023/09/27 05:40:11;;;;;;;8.43;7.67;;;16.20;99.90;;;;;;5021273;28;21068;-78
2023/09/27 05:42:40;;;;;;;9.40;8.50;;;16.20;99.90;;;;;;5020963;28;20188;-78
2023/09/27 05:45:10;;;;;;;9.27;7.03;;;16.20;99.90;;;;;;5024015;28;20650;-78
2023/09/27 05:47:35;;;;;;;10.93;7.47;;;16.20;99.90;;;;;;5020682;28;20451;-79
2023/09/27 05:50:01;;;;;;;10.10;7.97;;;16.20;99.90;;;;;;5011953;28;20427;-85
2023/09/27 05:52:27;;;;;;;8.70;7.90;;;16.20;99.90;;;;;;5022586;28;20188;-74
2023/09/27 05:54:52;;;;;;;9.03;7.23;;;16.20;99.90;;;;;;5015970;28;20220;-76
2023/09/27 05:57:18;;;;;;;8.03;7.20;;;16.20;99.90;;;;;;5010425;28;20248;-76
2023/09/27 05:59:44;;;;;;;8.03;7.23;;;16.20;99.90;;;;;;5016580;28;20180;-75
2023/09/27 06:02:16;;;;;;;9.70;7.57;;;16.20;99.90;;;;;;5012390;28;20204;-75
2023/09/27 06:04:43;;;;;;;7.97;7.23;;;16.20;99.90;;;;;;5013846;28;20462;-76
2023/09/27 06:07:13;;;;;;;8.93;7.47;;;16.20;99.90;;;;;;5012486;28;20458;-76
2023/09/27 06:09:42;;;;;;;8.10;7.30;;;16.20;99.90;;;;;;5016877;28;20449;-77
2023/09/27 06:12:10;;;;;;;9.37;7.70;;;16.20;99.90;;;;;;5012103;28;20419;-78
2023/09/27 06:14:36;;;;;;;10.33;7.23;;;16.20;99.90;;;;;;5015017;28;20443;-76
2023/09/27 06:17:02;;;;;;;11.23;7.53;;;16.20;99.90;;;;;;5011808;28;20946;-74
2023/09/27 06:19:30;;;;;;;9.73;7.80;;;16.20;99.90;;;;;;5016582;28;20498;-74
2023/09/27 06:21:55;;;;;;;8.40;7.17;;;16.20;99.90;;;;;;5017359;28;20971;-77
2023/09/27 06:24:21;;;;;;;7.93;7.13;;;16.20;99.90;;;;;;5011502;28;20442;-77
2023/09/27 06:26:47;;;;;;;8.97;7.40;;;16.30;99.90;;;;;;5011304;28;20217;-72
2023/09/27 06:29:13;;;;;;;8.90;7.53;;;16.30;99.90;;;;;;5017880;28;20435;-76
2023/09/27 06:31:38;;;;;;;9.33;7.77;;;16.30;99.90;;;;;;5027492;28;20640;-74
2023/09/27 06:34:04;;;;;;;8.90;7.33;;;16.30;99.90;;;;;;5011309;28;20683;-74
2023/09/27 06:36:34;;;;;;;11.90;7.37;;;16.40;99.90;;;;;;5013800;28;20263;-75
2023/09/27 06:39:00;;;;;;;8.83;7.87;;;16.40;99.90;;;;;;5016569;28;20656;-76
2023/09/27 06:41:26;;;;;;;8.30;7.50;;;16.50;99.90;;;;;;5016774;28;20410;-76
2023/09/27 06:43:53;;;;;;;11.67;9.97;;;16.50;99.90;;;;;;5011474;28;20463;-77
2023/09/27 06:46:19;;;;;;;9.10;8.13;;;16.60;99.90;;;;;;5014829;28;20462;-74
2023/09/27 06:48:45;;;;;;;11.23;9.63;;;16.60;99.90;;;;;;5018412;28;20982;-75
2023/09/27 06:51:13;;;;;;;11.70;9.13;;;16.70;99.90;;;;;;5016690;28;20271;-75
2023/09/27 06:53:39;;;;;;;10.83;8.47;;;16.70;99.90;;;;;;5012699;28;20206;-76
2023/09/27 06:56:05;;;;;;;10.23;8.83;;;16.70;99.90;;;;;;4991245;28;20439;-76
2023/09/27 06:58:31;;;;;;;8.67;7.83;;;16.80;99.90;;;;;;5008976;28;20342;-75
2023/09/27 07:00:57;;;;;;;11.80;9.30;;;16.80;99.90;;;;;;5000736;28;20515;-75
2023/09/27 07:03:27;;;;;;;13.27;8.93;;;16.80;99.90;;;;;;5015700;28;20446;-75
2023/09/27 07:05:53;;;;;;;10.17;8.63;;;16.90;99.90;;;;;;5001974;28;20358;-76
2023/09/27 07:08:20;;;;;;;11.30;9.87;;;16.90;99.90;;;;;;5003396;28;20464;-76
2023/09/27 07:10:45;;;;;;;10.27;9.00;;;16.90;99.90;;;;;;5016728;28;20416;-75
2023/09/27 07:13:11;;;;;;;11.67;9.13;;;17.00;99.90;;;;;;5016940;28;20458;-75
2023/09/27 07:15:37;;;;;;;10.33;9.23;;;17.00;99.90;;;;;;5021592;28;20192;-75
2023/09/27 07:18:04;;;;;;;8.90;8.03;;;17.10;99.90;;;;;;5034344;28;20184;-75
2023/09/27 07:20:34;;;;;;;9.70;8.70;;;17.10;99.90;;;;;;5002748;28;20212;-76
2023/09/27 07:23:03;;;;;;;12.67;8.27;;;17.10;99.90;;;;;;5015229;28;20476;-75
2023/09/27 07:25:32;;;;;;;12.27;9.10;;;17.20;99.90;;;;;;5032744;28;20981;-75
2023/09/27 07:27:58;;;;;;;12.33;8.90;;;17.20;99.90;;;;;;5019217;28;20434;-75
2023/09/27 07:30:24;;;;;;;10.63;9.70;;;17.20;99.90;;;;;;5017340;28;20427;-75
2023/09/27 07:32:51;;;;;;;10.93;9.90;;;17.30;99.90;;;;;;5017237;28;21052;-75
2023/09/27 07:35:17;;;;;;;11.10;9.57;;;17.30;99.90;;;;;;5018483;28;20432;-75
2023/09/27 07:37:43;;;;;;;10.67;9.27;;;17.40;99.90;;;;;;5003016;28;20523;-74
2023/09/27 07:40:11;;;;;;;11.43;8.70;;;17.40;99.90;;;;;;5019908;28;20593;-75
2023/09/27 07:42:42;;;;;;;15.80;13.00;;;17.50;99.90;;;;;;5024226;28;20449;-77
2023/09/27 07:45:16;;;;;;;13.97;12.00;;;17.50;99.90;;;;;;5020440;28;20598;-76
2023/09/27 07:47:42;;;;;;;13.40;9.87;;;17.50;99.90;;;;;;5006658;28;20438;-76
2023/09/27 07:50:10;;;;;;;10.50;9.50;;;17.60;99.90;;;;;;5017468;28;20809;-76
2023/09/27 07:52:36;;;;;;;15.00;9.20;;;17.60;99.90;;;;;;5022187;28;20510;-76
2023/09/27 07:55:04;;;;;;;9.47;7.80;;;17.60;99.90;;;;;;5016443;28;20522;-76
2023/09/27 07:57:30;;;;;;;15.67;9.00;;;17.70;99.90;;;;;;5002032;28;20468;-76
2023/09/27 07:59:55;;;;;;;13.70;11.93;;;17.70;99.90;;;;;;5028643;28;20506;-76
2023/09/27 08:02:21;;;;;;;9.57;8.63;;;17.80;99.90;;;;;;5028921;28;20177;-76
2023/09/27 08:04:48;;;;;;;10.77;8.17;;;17.80;99.90;;;;;;5020639;28;20196;-76
2023/09/27 08:07:14;;;;;;;11.07;8.80;;;17.90;99.90;;;;;;5019514;28;20204;-76
2023/09/27 08:09:39;;;;;;;8.30;7.40;;;17.90;99.90;;;;;;5021866;28;20804;-77
2023/09/27 08:12:05;;;;;;;9.80;7.43;;;18.00;99.90;;;;;;4998071;28;20180;-77
2023/09/27 08:14:32;;;;;;;10.70;8.23;;;18.10;99.90;;;;;;5021235;28;20837;-76
2023/09/27 08:16:58;;;;;;;8.20;7.17;;;18.10;99.90;;;;;;5019142;28;20435;-77
2023/09/27 08:19:24;;;;;;;18.37;16.40;;;18.10;99.90;;;;;;5017466;28;21802;-77
2023/09/27 08:21:50;;;;;;;11.40;7.83;;;18.20;99.90;;;;;;5022018;28;20271;-76
2023/09/27 08:24:17;;;;;;;8.63;7.20;;;18.30;99.90;;;;;;5021192;28;20465;-77
2023/09/27 08:26:42;;;;;;;9.23;7.63;;;18.30;99.90;;;;;;5021732;28;21067;-76
2023/09/27 08:29:09;;;;;;;7.03;6.03;;;18.30;99.90;;;;;;4982926;28;20522;-76
2023/09/27 08:31:37;;;;;;;7.03;5.80;;;18.40;99.90;;;;;;5017656;28;20180;-76
2023/09/27 08:34:04;;;;;;;6.17;5.10;;;18.40;99.90;;;;;;5017614;28;20973;-77
2023/09/27 08:36:30;;;;;;;12.10;6.20;;;18.50;99.90;;;;;;5035149;28;20419;-76
2023/09/27 08:38:56;;;;;;;6.13;5.07;;;18.60;99.90;;;;;;5022865;28;20442;-77
2023/09/27 08:41:23;;;;;;;9.20;5.80;;;18.60;99.90;;;;;;5032256;28;20445;-76
2023/09/27 08:43:50;;;;;;;8.50;6.90;;;18.70;99.90;;;;;;5019482;28;20218;-75
2023/09/27 08:46:18;;;;;;;7.93;7.10;;;18.80;99.90;;;;;;5029752;28;21223;-75
2023/09/27 08:48:44;;;;;;;17.23;15.30;;;18.80;99.90;;;;;;5019003;28;20442;-76
2023/09/27 08:51:11;;;;;;;8.50;6.30;;;18.90;99.90;;;;;;5016268;28;20446;-77
2023/09/27 08:53:38;;;;;;;6.63;4.87;;;18.90;99.90;;;;;;4991684;28;21015;-77
2023/09/27 08:56:06;;;;;;;5.30;4.80;;;19.00;99.90;;;;;;5018151;28;20473;-78
2023/09/27 08:58:34;;;;;;;5.97;5.07;;;19.10;99.90;;;;;;5006138;28;20543;-76
2023/09/27 09:01:00;;;;;;;9.13;5.13;;;19.20;99.90;;;;;;5009416;28;20443;-76
2023/09/27 09:03:26;;;;;;;9.50;5.43;;;19.20;99.90;;;;;;5001358;28;20453;-75
2023/09/27 09:05:53;;;;;;;10.83;4.47;;;19.20;99.90;;;;;;5019139;28;20466;-75
2023/09/27 09:08:20;;;;;;;6.50;5.80;;;19.30;99.90;;;;;;5017413;28;21033;-75
2023/09/27 09:10:45;;;;;;;4.80;4.17;;;19.40;99.90;;;;;;5017750;28;20819;-76
2023/09/27 09:13:11;;;;;;;5.57;4.70;;;19.40;99.90;;;;;;5032782;28;20448;-75
2023/09/27 09:15:41;;;;;;;9.03;5.30;;;19.40;99.90;;;;;;5015429;28;20804;-75
2023/09/27 09:18:25;;;;;;;6.40;5.00;;;19.50;99.90;;;;;;5018745;28;20677;-76
2023/09/27 09:21:08;;;;;;;7.30;6.60;;;19.50;99.90;;;;;;5019443;28;20439;-76
2023/09/27 09:23:36;;;;;;;6.70;4.90;;;19.60;99.90;;;;;;5028306;28;20466;-74
2023/09/27 09:26:05;;;;;;;5.20;4.40;;;19.60;99.90;;;;;;5003669;28;20497;-76
2023/09/27 09:28:31;;;;;;;5.40;4.63;;;19.70;99.90;;;;;;5020886;28;20937;-77
2023/09/27 09:30:57;;;;;;;7.10;3.90;;;19.80;99.90;;;;;;5017168;28;20415;-76
2023/09/27 09:33:28;;;;;;;8.30;6.57;;;19.80;99.90;;;;;;5019313;28;20455;-76
2023/09/27 09:35:55;;;;;;;5.17;4.40;;;19.90;99.90;;;;;;5021956;28;20455;-75
2023/09/27 09:38:30;;;;;;;5.77;4.70;;;19.90;99.90;;;;;;5017927;28;20431;-77
2023/09/27 09:41:01;;;;;;;5.50;4.60;;;20.00;99.90;;;;;;5018468;28;20427;-76
2023/09/27 09:43:37;;;;;;;9.50;5.10;;;20.00;99.90;;;;;;5012376;28;20481;-76
2023/09/27 09:46:06;;;;;;;9.43;4.80;;;20.10;99.90;;;;;;5029635;28;20492;-77
2023/09/27 09:48:36;;;;;;;9.20;4.30;;;20.20;99.90;;;;;;5016027;28;20429;-76
2023/09/27 09:51:06;;;;;;;9.00;4.97;;;20.30;99.90;;;;;;5018316;28;20914;-76
2023/09/27 09:53:41;;;;;;;6.03;4.20;;;20.30;99.90;;;;;;5017185;28;21096;-76
2023/09/27 09:56:08;;;;;;;6.90;4.50;;;20.40;99.90;;;;;;5016472;28;20431;-76
2023/09/27 09:58:46;;;;;;;7.83;4.90;;;20.50;99.90;;;;;;5022406;28;21243;-76
2023/09/27 10:01:21;;;;;;;5.07;4.53;;;20.50;99.90;;;;;;5014429;28;20408;-77
2023/09/27 10:03:50;;;;;;;4.90;4.40;;;20.60;99.90;;;;;;5018583;28;20445;-76
2023/09/27 10:06:19;;;;;;;5.47;4.70;;;20.70;99.90;;;;;;5012855;28;20478;-77
2023/09/27 10:08:47;;;;;;;7.17;4.53;;;20.70;99.90;;;;;;5009251;28;21025;-77
2023/09/27 10:11:13;;;;;;;5.20;4.70;;;20.80;99.90;;;;;;5010862;28;20513;-78
2023/09/27 10:13:41;;;;;;;4.83;4.33;;;20.90;99.90;;;;;;5017563;28;20478;-75
2023/09/27 10:16:08;;;;;;;6.87;4.03;;;20.90;99.90;;;;;;5015273;28;20453;-78
2023/09/27 10:18:38;;;;;;;4.97;4.47;;;21.00;99.90;;;;;;5017703;28;22499;-77
2023/09/27 10:21:03;;;;;;;5.07;4.57;;;21.10;99.90;;;;;;5018524;28;20427;-76
2023/09/27 10:23:47;;;;;;;5.50;4.23;;;21.10;99.90;;;;;;5015569;28;20457;-77
2023/09/27 10:26:28;;;;;;;5.30;4.20;;;21.20;99.90;;;;;;5029439;28;20705;-76
2023/09/27 10:29:16;;;;;;;5.60;4.50;;;21.30;99.90;;;;;;5020078;28;20785;-76
2023/09/27 10:31:57;;;;;;;4.80;4.30;;;21.30;99.90;;;;;;5019298;28;20469;-77
2023/09/27 10:34:25;;;;;;;5.20;4.70;;;21.40;99.90;;;;;;5015103;28;20466;-77
2023/09/27 10:36:52;;;;;;;6.13;5.40;;;21.50;99.90;;;;;;5020803;28;20423;-76
2023/09/27 10:39:17;;;;;;;7.00;4.83;;;21.60;99.90;;;;;;5023568;28;20439;-77
2023/09/27 10:41:50;;;;;;;9.30;5.57;;;21.60;99.90;;;;;;5018373;28;20430;-76
2023/09/27 10:44:29;;;;;;;4.93;4.40;;;21.70;99.90;;;;;;5016640;28;20215;-77
2023/09/27 10:46:56;;;;;;;5.13;4.63;;;21.70;99.90;;;;;;5016883;28;20479;-78
2023/09/27 10:49:24;;;;;;;8.40;4.90;;;21.70;99.90;;;;;;5000758;28;20439;-76
2023/09/27 10:51:50;;;;;;;5.83;4.50;;;21.80;99.90;;;;;;5021212;28;20503;-76
2023/09/27 10:54:21;;;;;;;5.80;5.20;;;21.80;99.90;;;;;;5014898;28;20524;-76
2023/09/27 10:56:52;;;;;;;5.57;5.03;;;22.00;99.90;;;;;;5014080;28;20431;-76
2023/09/27 10:59:27;;;;;;;5.30;4.90;;;22.00;99.90;;;;;;5015982;28;21142;-76
2023/09/27 11:01:56;;;;;;;6.87;5.60;;;22.00;99.90;;;;;;5008358;28;20438;-77
2023/09/27 11:04:23;;;;;;;5.43;4.93;;;22.00;99.90;;;;;;4993167;28;20810;-76
2023/09/27 11:06:49;;;;;;;7.40;4.87;;;22.20;99.90;;;;;;5015636;28;20463;-76
2023/09/27 11:09:19;;;;;;;5.90;5.30;;;22.20;99.90;;;;;;5008458;28;20443;-76
2023/09/27 11:11:46;;;;;;;5.07;4.57;;;22.30;99.90;;;;;;5008475;28;20279;-75
2023/09/27 11:14:11;;;;;;;9.17;5.60;;;22.40;99.90;;;;;;5010901;28;20550;-77
2023/09/27 11:16:37;;;;;;;11.27;4.93;;;22.40;99.90;;;;;;5000499;28;20518;-77
2023/09/27 11:19:04;;;;;;;5.80;5.20;;;22.50;99.90;;;;;;5017558;28;20195;-76
2023/09/27 11:21:31;;;;;;;5.87;5.10;;;22.60;99.90;;;;;;5012193;28;20193;-77
2023/09/27 11:23:59;;;;;;;6.70;5.37;;;22.70;99.90;;;;;;5010998;28;20446;-77
2023/09/27 11:26:29;;;;;;;5.00;4.30;;;22.70;99.90;;;;;;5017313;28;20625;-76
2023/09/27 11:29:06;;;;;;;7.27;4.70;;;22.90;99.90;;;;;;5016730;28;20431;-77
2023/09/27 11:31:33;;;;;;;6.00;5.30;;;23.00;99.90;;;;;;5021621;28;20515;-77
2023/09/27 11:34:14;;;;;;;4.60;4.17;;;23.10;99.90;;;;;;5011654;28;20478;-77
2023/09/27 11:37:02;;;;;;;5.10;4.60;;;23.30;99.90;;;;;;5015243;28;21006;-77
2023/09/27 11:39:50;;;;;;;5.80;5.20;;;23.60;99.90;;;;;;5018354;28;21054;-77
2023/09/27 11:42:21;;;;;;;5.40;4.67;;;23.70;99.90;;;;;;5002746;28;20482;-77
2023/09/27 11:45:04;;;;;;;4.47;4.07;;;23.90;99.90;;;;;;5019123;28;20439;-77
2023/09/27 11:47:30;;;;;;;4.50;4.00;;;24.10;99.90;;;;;;5018497;28;20430;-77
2023/09/27 11:49:56;;;;;;;5.03;4.53;;;24.30;99.90;;;;;;5019477;28;20427;-76
2023/09/27 11:52:21;;;;;;;8.03;4.80;;;24.50;99.90;;;;;;5018464;28;20524;-76
2023/09/27 11:54:47;;;;;;;5.10;4.60;;;25.20;99.90;;;;;;5020142;28;20196;-77
2023/09/27 11:57:12;;;;;;;5.87;4.50;;;26.00;99.90;;;;;;5021387;28;20230;-76
2023/09/27 11:59:39;;;;;;;5.93;4.37;;;26.70;99.90;;;;;;5016059;28;20227;-76
2023/09/27 12:02:05;;;;;;;5.77;4.17;;;27.00;99.90;;;;;;5002987;28;20184;-75
2023/09/27 12:04:30;;;;;;;5.33;4.50;;;27.20;99.90;;;;;;5022862;28;20496;-75
2023/09/27 12:06:56;;;;;;;9.03;4.20;;;27.30;99.90;;;;;;5033275;28;20747;-76
2023/09/27 12:09:22;;;;;;;7.70;4.10;;;27.50;99.90;;;;;;5002267;28;20187;-76
2023/09/27 12:11:47;;;;;;;5.30;4.47;;;28.00;99.90;;;;;;5021172;28;20559;-76
2023/09/27 12:14:13;;;;;;;5.77;5.17;;;28.60;99.90;;;;;;5020274;28;20240;-75
2023/09/27 12:16:38;;;;;;;5.27;4.77;;;28.50;99.90;;;;;;5004217;28;20560;-76
2023/09/27 12:19:04;;;;;;;5.30;4.60;;;28.90;99.90;;;;;;5022050;28;20240;-76
2023/09/27 12:21:34;;;;;;;4.87;4.37;;;29.50;99.90;;;;;;5019707;28;20196;-77
2023/09/27 12:24:00;;;;;;;5.30;4.80;;;30.10;99.90;;;;;;5015508;28;20216;-75
2023/09/27 12:26:26;;;;;;;4.47;3.97;;;30.80;99.90;;;;;;5017938;28;20493;-77
2023/09/27 12:28:52;;;;;;;5.20;4.70;;;31.10;99.90;;;;;;5018906;28;20435;-75
2023/09/27 12:31:17;;;;;;;4.70;4.17;;;31.70;99.90;;;;;;5014422;28;20181;-76
2023/09/27 12:33:43;;;;;;;4.90;4.40;;;32.10;99.20;;;;;;5021248;28;20551;-77
2023/09/27 12:36:08;;;;;;;6.73;4.67;;;32.60;97.80;;;;;;5029222;28;20184;-76
2023/09/27 12:38:34;;;;;;;5.00;4.50;;;32.90;96.20;;;;;;5018421;28;20176;-75
2023/09/27 12:41:01;;;;;;;6.33;4.80;;;33.40;95.40;;;;;;5019271;28;20713;-76
2023/09/27 12:43:27;;;;;;;5.33;4.23;;;33.70;93.30;;;;;;4998217;28;20716;-77
2023/09/27 12:45:52;;;;;;;4.77;4.27;;;34.10;91.60;;;;;;5020212;28;20468;-75